Time;durP1;ratioP1;P1;durP2;ratioP2;P2;SDS_P1;SDS_P2;PMS_P1;PMS_P2;Temp;Humidity;BMP_temperature;BMP_pressure;BME280_temperature;BME280_humidity;BME280_pressure;Samples;Min_cycle;Max_cycle;Signal;HPM_P1;HPM_P2
2022/10/15 00:02:01;;;;;;;47.65;21.83;;;;;;;12.56;100.00;100687.97;2615223;36;20448;-53
2022/10/15 00:04:31;;;;;;;45.17;22.88;;;;;;;12.64;100.00;100686.38;2615767;36;20439;-56
2022/10/15 00:07:00;;;;;;;46.00;23.08;;;;;;;12.70;100.00;100674.94;2615714;36;20030;-50
2022/10/15 00:09:31;;;;;;;48.80;23.20;;;;;;;12.80;100.00;100673.00;2615064;31;20512;-57
2022/10/15 00:11:59;;;;;;;49.38;24.30;;;;;;;12.80;100.00;100675.72;2615003;36;20129;-55
2022/10/15 00:14:27;;;;;;;49.03;23.63;;;;;;;12.89;100.00;100672.06;2615322;36;20125;-56
2022/10/15 00:16:56;;;;;;;53.20;24.80;;;;;;;12.78;100.00;100673.16;2615968;36;20034;-53
2022/10/15 00:19:24;;;;;;;57.13;25.23;;;;;;;12.81;100.00;100666.63;2614808;36;20041;-53
2022/10/15 00:21:52;;;;;;;50.55;24.50;;;;;;;12.90;100.00;100662.13;2615681;36;20039;-53
2022/10/15 00:24:20;;;;;;;47.60;24.70;;;;;;;12.92;100.00;100660.13;2615423;31;20041;-54
2022/10/15 00:26:51;;;;;;;49.80;24.27;;;;;;;12.87;100.00;100663.28;2614686;31;20073;-53
2022/10/15 00:29:20;;;;;;;55.55;24.38;;;;;;;12.85;100.00;100667.16;2614496;36;20034;-55
2022/10/15 00:31:48;;;;;;;56.97;26.35;;;;;;;12.87;100.00;100663.28;2615490;36;20066;-55
2022/10/15 00:34:16;;;;;;;53.20;25.40;;;;;;;12.84;100.00;100671.72;2615182;36;20038;-52
2022/10/15 00:36:44;;;;;;;54.58;25.63;;;;;;;12.92;100.00;100666.34;2615783;36;20034;-52
2022/10/15 00:39:13;;;;;;;51.25;26.20;;;;;;;12.85;100.00;100662.56;2615083;31;20034;-54
2022/10/15 00:41:43;;;;;;;52.28;25.55;;;;;;;12.86;100.00;100660.75;2616253;36;20027;-53
2022/10/15 00:44:42;;;;;;;56.60;25.98;;;;;;;12.78;100.00;100656.13;2616042;36;20122;-53
2022/10/15 00:47:18;;;;;;;55.10;26.23;;;;;;;12.84;100.00;100650.09;2616655;36;20424;-53
2022/10/15 00:49:51;;;;;;;55.30;25.55;;;;;;;12.82;100.00;100652.09;2616190;36;20677;-52
2022/10/15 00:52:29;;;;;;;61.35;29.80;;;;;;;12.77;100.00;100649.03;2616549;36;20068;-56
2022/10/15 00:55:01;;;;;;;57.33;27.00;;;;;;;12.71;100.00;100646.94;2615526;36;20046;-55
2022/10/15 00:57:31;;;;;;;65.15;29.58;;;;;;;12.64;100.00;100653.97;2614308;36;20717;-56
2022/10/15 01:00:04;;;;;;;59.08;28.45;;;;;;;12.84;100.00;100652.81;2608366;36;20118;-54
2022/10/15 01:02:35;;;;;;;58.78;28.08;;;;;;;12.87;100.00;100647.09;2615504;36;20531;-53
2022/10/15 01:05:04;;;;;;;63.67;32.53;;;;;;;12.91;100.00;100651.19;2616167;36;20027;-53
2022/10/15 01:07:32;;;;;;;62.22;30.83;;;;;;;12.93;100.00;100646.44;2616476;36;20019;-56
2022/10/15 01:10:01;;;;;;;61.35;29.80;;;;;;;13.01;100.00;100647.53;2616171;36;20026;-53
2022/10/15 01:12:44;;;;;;;72.63;31.75;;;;;;;12.92;100.00;100647.44;2615611;36;20046;-56
2022/10/15 01:15:19;;;;;;;68.95;31.65;;;;;;;12.94;100.00;100640.06;2615744;36;20026;-51
2022/10/15 01:17:55;;;;;;;64.53;29.90;;;;;;;12.90;100.00;100645.94;2616156;36;20127;-52
2022/10/15 01:20:43;;;;;;;72.22;31.38;;;;;;;12.80;100.00;100649.53;2616483;31;20058;-54
2022/10/15 01:23:37;;;;;;;57.97;29.48;;;;;;;12.73;100.00;100650.34;2615654;36;20046;-52
2022/10/15 01:26:27;;;;;;;67.10;30.75;;;;;;;12.77;100.00;100638.22;2615870;36;20065;-55
2022/10/15 01:29:10;;;;;;;67.75;31.63;;;;;;;12.90;100.00;100638.66;2615208;36;20459;-56
2022/10/15 01:31:56;;;;;;;69.20;30.92;;;;;;;12.90;100.00;100644.06;2615713;36;20065;-53
2022/10/15 01:34:34;;;;;;;68.03;30.88;;;;;;;12.94;100.00;100644.59;2614790;36;20042;-51
2022/10/15 01:37:10;;;;;;;67.10;30.30;;;;;;;12.81;100.00;100634.22;2615723;36;20030;-56
2022/10/15 01:39:43;;;;;;;72.45;31.85;;;;;;;12.89;100.00;100630.72;2615610;31;20030;-55
2022/10/15 01:42:18;;;;;;;64.75;31.23;;;;;;;12.84;100.00;100633.03;2613959;36;20037;-52
2022/10/15 01:44:52;;;;;;;69.85;30.50;;;;;;;12.87;100.00;100624.63;2615339;31;20585;-55
2022/10/15 01:47:29;;;;;;;69.18;32.17;;;;;;;12.88;100.00;100629.88;2614537;36;20046;-54
2022/10/15 01:50:00;;;;;;;70.55;30.77;;;;;;;12.91;100.00;100624.16;2613316;36;20031;-56
2022/10/15 01:52:33;;;;;;;65.57;29.23;;;;;;;12.84;100.00;100625.78;2615915;36;20559;-54
2022/10/15 01:55:05;;;;;;;65.35;31.67;;;;;;;12.88;100.00;100629.00;2615490;36;20030;-52
2022/10/15 01:57:35;;;;;;;62.63;28.63;;;;;;;12.73;100.00;100626.03;2615747;36;20039;-54
2022/10/15 02:00:05;;;;;;;66.82;31.30;;;;;;;12.72;100.00;100618.91;2614813;36;20038;-54
2022/10/15 02:02:36;;;;;;;67.70;31.48;;;;;;;12.69;100.00;100620.09;2617582;31;20572;-54
2022/10/15 02:05:08;;;;;;;73.93;32.70;;;;;;;12.65;100.00;100617.84;2613483;31;20039;-55
2022/10/15 02:07:45;;;;;;;71.45;30.38;;;;;;;12.72;100.00;100608.13;2616246;36;20034;-51
2022/10/15 02:10:23;;;;;;;80.38;34.42;;;;;;;12.72;100.00;100613.53;2615022;36;20041;-53
2022/10/15 02:13:00;;;;;;;83.47;35.20;;;;;;;12.85;100.00;100608.56;2615756;36;20029;-53
2022/10/15 02:15:37;;;;;;;76.50;33.97;;;;;;;12.87;100.00;100605.72;2614961;36;20045;-51
2022/10/15 02:18:17;;;;;;;84.55;35.80;;;;;;;12.87;100.00;100605.72;2615485;36;20513;-52
2022/10/15 02:20:52;;;;;;;75.63;33.70;;;;;;;12.80;100.00;100602.78;2615402;31;20057;-54
2022/10/15 02:23:24;;;;;;;87.07;37.00;;;;;;;12.97;100.00;100596.50;2616156;36;20401;-52
2022/10/15 02:25:54;;;;;;;85.65;35.95;;;;;;;12.95;100.00;100593.09;2615234;36;20038;-51
2022/10/15 02:28:24;;;;;;;94.18;34.55;;;;;;;12.95;100.00;100595.81;2615785;31;20034;-51
2022/10/15 02:30:54;;;;;;;90.15;33.95;;;;;;;12.87;100.00;100590.34;2614291;36;20027;-53
2022/10/15 02:33:28;;;;;;;84.03;36.80;;;;;;;12.89;100.00;100585.63;2615689;36;20125;-55
2022/10/15 02:35:58;;;;;;;84.22;34.75;;;;;;;12.86;100.00;100588.66;2615582;31;20034;-53
2022/10/15 02:38:30;;;;;;;98.65;38.63;;;;;;;12.90;100.00;100590.03;2614305;36;20042;-54
2022/10/15 02:40:58;;;;;;;90.88;36.95;;;;;;;13.05;100.00;100589.47;2616621;36;20404;-54
2022/10/15 02:43:27;;;;;;;100.57;36.17;;;;;;;13.09;100.00;100590.84;2613550;36;20038;-53
2022/10/15 02:45:55;;;;;;;97.13;39.00;;;;;;;13.00;100.00;100587.25;2616122;36;20026;-52
2022/10/15 02:48:26;;;;;;;85.22;35.63;;;;;;;13.09;100.00;100588.16;2616041;36;20031;-53
2022/10/15 02:50:55;;;;;;;95.55;37.30;;;;;;;13.06;100.00;100588.44;2616379;36;20042;-53
2022/10/15 02:53:23;;;;;;;92.97;35.00;;;;;;;13.07;100.00;100582.03;2615783;31;20097;-54
2022/10/15 02:55:51;;;;;;;89.80;35.30;;;;;;;13.08;100.00;100586.44;2615746;36;20295;-53
2022/10/15 02:58:19;;;;;;;89.18;35.30;;;;;;;13.06;100.00;100573.09;2615713;36;20435;-55
2022/10/15 03:00:48;;;;;;;105.20;37.22;;;;;;;13.10;100.00;100574.47;2614626;36;20035;-56
2022/10/15 03:03:16;;;;;;;102.00;37.53;;;;;;;13.17;100.00;100571.97;2608180;36;20061;-53
2022/10/15 03:05:47;;;;;;;92.57;37.25;;;;;;;13.16;100.00;100578.38;2615558;36;20070;-53
2022/10/15 03:08:16;;;;;;;95.78;37.47;;;;;;;13.20;100.00;100570.81;2616349;36;20412;-53
2022/10/15 03:10:44;;;;;;;95.97;36.92;;;;;;;13.17;100.00;100563.88;2615717;36;20027;-51
2022/10/15 03:13:12;;;;;;;95.07;36.23;;;;;;;13.23;100.00;100557.81;2615623;36;20034;-51
2022/10/15 03:15:41;;;;;;;101.07;37.77;;;;;;;13.17;100.00;100563.88;2615769;36;20034;-55
2022/10/15 03:18:09;;;;;;;89.10;37.57;;;;;;;13.23;100.00;100554.28;2615976;36;20033;-55
2022/10/15 03:20:38;;;;;;;99.43;37.77;;;;;;;13.22;100.00;100552.56;2615720;36;20563;-53
2022/10/15 03:23:08;;;;;;;98.97;36.38;;;;;;;13.28;100.00;100549.22;2616140;36;20030;-53
2022/10/15 03:25:37;;;;;;;99.95;38.70;;;;;;;13.49;100.00;100543.44;2615003;36;20038;-53
2022/10/15 03:28:06;;;;;;;94.57;38.83;;;;;;;13.37;100.00;100539.31;2614915;36;20449;-55
2022/10/15 03:30:34;;;;;;;90.40;37.17;;;;;;;13.37;100.00;100542.88;2614685;31;20263;-54
2022/10/15 03:33:03;;;;;;;97.18;38.65;;;;;;;13.43;100.00;100536.00;2615683;36;20035;-52
2022/10/15 03:35:31;;;;;;;94.50;40.10;;;;;;;13.38;100.00;100538.31;2615416;36;20034;-55
2022/10/15 03:37:59;;;;;;;96.72;38.53;;;;;;;13.41;100.00;100536.16;2614976;36;20561;-54
2022/10/15 03:40:30;;;;;;;92.85;37.42;;;;;;;13.18;100.00;100538.53;2614604;36;20038;-54
2022/10/15 03:42:59;;;;;;;89.55;37.22;;;;;;;13.33;100.00;100542.31;2615496;36;20030;-55
2022/10/15 03:45:28;;;;;;;89.22;37.03;;;;;;;13.17;100.00;100536.84;2615433;36;20617;-52
2022/10/15 03:47:57;;;;;;;94.55;38.28;;;;;;;13.35;100.00;100533.25;2614833;36;20424;-54
2022/10/15 03:50:25;;;;;;;87.40;36.85;;;;;;;13.19;100.00;100539.38;2615592;36;20019;-53
2022/10/15 03:52:53;;;;;;;97.57;38.00;;;;;;;13.10;100.00;100543.88;2615204;36;20027;-54
2022/10/15 03:55:21;;;;;;;91.88;36.40;;;;;;;13.18;100.00;100540.41;2614581;36;20034;-51
2022/10/15 03:57:52;;;;;;;83.28;35.65;;;;;;;12.94;100.00;100536.53;2614201;36;20037;-55
2022/10/15 04:00:21;;;;;;;85.10;36.45;;;;;;;12.93;100.00;100534.84;2614441;36;20033;-56
2022/10/15 04:02:49;;;;;;;90.90;36.30;;;;;;;12.86;100.00;100537.34;2614864;36;20078;-52
2022/10/15 04:05:17;;;;;;;90.63;36.85;;;;;;;12.84;100.00;100531.25;2615495;36;20069;-55
2022/10/15 04:07:46;;;;;;;79.40;35.13;;;;;;;12.87;100.00;100530.09;2614146;36;20045;-54
2022/10/15 04:10:14;;;;;;;93.65;38.83;;;;;;;12.80;100.00;100535.28;2614828;36;20626;-54
2022/10/15 04:12:42;;;;;;;94.03;38.03;;;;;;;12.90;100.00;100535.19;2615057;36;20057;-54
2022/10/15 04:15:13;;;;;;;92.72;37.75;;;;;;;12.96;100.00;100538.06;2616342;36;20041;-52
2022/10/15 04:17:42;;;;;;;84.47;34.90;;;;;;;12.94;100.00;100541.94;2615545;36;20082;-53
2022/10/15 04:20:11;;;;;;;79.65;34.40;;;;;;;12.94;100.00;100548.19;2616295;36;20034;-53
2022/10/15 04:22:40;;;;;;;86.50;36.35;;;;;;;13.08;100.00;100548.63;2615903;36;20023;-55
2022/10/15 04:25:09;;;;;;;87.00;36.28;;;;;;;12.88;100.00;100547.97;2615367;36;20038;-53
2022/10/15 04:27:38;;;;;;;93.30;35.88;;;;;;;12.95;100.00;100555.28;2616254;36;20447;-53
2022/10/15 04:30:08;;;;;;;96.32;38.13;;;;;;;12.93;100.00;100559.16;2615435;36;20034;-53
2022/10/15 04:32:39;;;;;;;91.15;35.33;;;;;;;13.05;100.00;100562.44;2616491;36;20026;-54
2022/10/15 04:35:08;;;;;;;88.53;37.10;;;;;;;12.93;100.00;100561.88;2615478;36;20065;-58
2022/10/15 04:37:36;;;;;;;84.65;36.15;;;;;;;13.10;100.00;100562.81;2615342;31;20022;-53
2022/10/15 04:40:06;;;;;;;93.43;39.50;;;;;;;13.10;100.00;100560.97;2615215;36;20560;-60
2022/10/15 04:42:34;;;;;;;96.45;38.63;;;;;;;13.14;100.00;100565.03;2616792;36;20034;-54
2022/10/15 04:45:03;;;;;;;87.65;38.10;;;;;;;13.15;100.00;100563.19;2616216;36;20039;-54
2022/10/15 04:47:31;;;;;;;96.80;40.17;;;;;;;13.10;100.00;100562.81;2615776;36;20030;-52
2022/10/15 04:50:02;;;;;;;81.57;35.83;;;;;;;13.15;100.00;100560.47;2616196;36;20039;-55
2022/10/15 04:52:31;;;;;;;86.82;35.58;;;;;;;13.09;100.00;100556.56;2615102;36;20023;-54
2022/10/15 04:55:01;;;;;;;87.00;37.58;;;;;;;12.99;100.00;100549.59;2615633;36;20034;-54
2022/10/15 04:57:30;;;;;;;86.07;35.80;;;;;;;13.02;100.00;100554.66;2614917;36;20035;-52
2022/10/15 04:59:59;;;;;;;87.53;36.92;;;;;;;12.97;100.00;100550.59;2616388;36;20118;-53
2022/10/15 05:02:27;;;;;;;89.38;37.53;;;;;;;13.04;100.00;100547.25;2615335;36;20057;-55
2022/10/15 05:04:55;;;;;;;94.73;38.70;;;;;;;13.06;100.00;100556.88;2608690;31;20583;-54
2022/10/15 05:07:26;;;;;;;91.82;39.50;;;;;;;13.22;100.00;100550.72;2615261;36;20061;-49
2022/10/15 05:09:54;;;;;;;97.25;38.25;;;;;;;13.30;100.00;100555.31;2616046;36;20045;-52
2022/10/15 05:12:23;;;;;;;87.28;38.70;;;;;;;13.30;100.00;100553.47;2616122;36;20037;-51
2022/10/15 05:14:51;;;;;;;96.53;40.17;;;;;;;13.39;100.00;100554.38;2615957;36;20035;-55
2022/10/15 05:17:19;;;;;;;96.72;38.70;;;;;;;13.49;100.00;100557.81;2616109;31;20030;-55
2022/10/15 05:19:48;;;;;;;86.00;39.40;;;;;;;13.58;100.00;100555.97;2616278;36;20034;-55
2022/10/15 05:22:16;;;;;;;96.95;39.80;;;;;;;13.47;100.00;100558.97;2615886;36;20034;-54
2022/10/15 05:24:47;;;;;;;92.82;38.30;;;;;;;13.48;100.00;100566.06;2616009;36;20035;-56
2022/10/15 05:27:15;;;;;;;98.50;38.33;;;;;;;13.59;100.00;100551.41;2615615;36;20045;-53
2022/10/15 05:29:43;;;;;;;92.18;40.10;;;;;;;13.61;100.00;100552.94;2615527;36;20034;-56
2022/10/15 05:32:12;;;;;;;90.63;39.47;;;;;;;13.56;100.00;100549.91;2613275;31;20046;-54
2022/10/15 05:34:40;;;;;;;88.80;38.85;;;;;;;13.72;100.00;100548.25;2615970;36;20037;-55
2022/10/15 05:37:08;;;;;;;86.43;38.97;;;;;;;13.81;100.00;100544.56;2616253;36;20419;-52
2022/10/15 05:39:36;;;;;;;85.73;39.33;;;;;;;13.79;100.00;100535.75;2615189;36;20023;-54
2022/10/15 05:42:07;;;;;;;91.10;38.67;;;;;;;13.92;100.00;100541.53;2614916;36;20038;-55
2022/10/15 05:44:36;;;;;;;87.10;39.63;;;;;;;13.90;100.00;100537.28;2615761;36;20030;-55
2022/10/15 05:47:05;;;;;;;89.00;38.70;;;;;;;13.85;100.00;100540.50;2615610;36;20038;-55
2022/10/15 05:49:33;;;;;;;91.00;40.30;;;;;;;13.83;100.00;100547.94;2616615;31;20023;-53
2022/10/15 05:52:01;;;;;;;87.18;37.80;;;;;;;13.70;100.00;100548.41;2615588;36;20030;-53
2022/10/15 05:54:30;;;;;;;93.45;40.35;;;;;;;13.76;100.00;100536.94;2614722;36;20039;-56
2022/10/15 05:56:58;;;;;;;91.28;39.63;;;;;;;13.60;100.00;100540.47;2615291;36;20061;-57
2022/10/15 05:59:29;;;;;;;78.30;35.50;;;;;;;13.62;100.00;100543.84;2615576;36;20023;-55
2022/10/15 06:01:57;;;;;;;96.00;40.88;;;;;;;13.60;100.00;100545.88;2615424;36;20555;-55
2022/10/15 06:04:26;;;;;;;86.85;37.90;;;;;;;13.71;100.00;100550.13;2615447;31;20041;-53
2022/10/15 06:06:54;;;;;;;87.33;38.83;;;;;;;13.51;100.00;100537.88;2615481;36;20039;-54
2022/10/15 06:09:22;;;;;;;100.28;42.13;;;;;;;13.63;100.00;100548.25;2615328;36;20042;-54
2022/10/15 06:11:51;;;;;;;92.83;40.27;;;;;;;13.72;100.00;100540.13;2615815;36;20030;-52
2022/10/15 06:14:20;;;;;;;104.93;41.47;;;;;;;13.79;100.00;100550.13;2615608;36;20031;-56
2022/10/15 06:16:53;;;;;;;104.20;44.17;;;;;;;13.66;100.00;100547.91;2615645;36;20034;-50
2022/10/15 06:19:21;;;;;;;103.93;42.50;;;;;;;13.84;100.00;100557.78;2615391;36;20544;-54
2022/10/15 06:21:50;;;;;;;106.95;41.67;;;;;;;13.77;100.00;100554.03;2616932;31;20435;-50
2022/10/15 06:24:18;;;;;;;112.23;40.10;;;;;;;13.73;100.00;100552.66;2614449;36;20027;-52
2022/10/15 06:26:46;;;;;;;108.30;42.47;;;;;;;13.80;100.00;100551.81;2615705;36;20034;-53
2022/10/15 06:29:15;;;;;;;127.40;42.65;;;;;;;13.83;100.00;100547.94;2615229;36;20031;-54
2022/10/15 06:31:43;;;;;;;118.72;40.72;;;;;;;13.92;100.00;100544.25;2616037;36;20038;-56
2022/10/15 06:34:14;;;;;;;108.30;40.00;;;;;;;13.83;100.00;100554.19;2615387;31;20062;-49
2022/10/15 06:36:42;;;;;;;104.97;38.42;;;;;;;13.76;100.00;100546.91;2615708;36;20030;-54
2022/10/15 06:39:11;;;;;;;117.95;40.70;;;;;;;13.92;100.00;100541.53;2615284;36;20034;-53
2022/10/15 06:41:39;;;;;;;103.28;39.15;;;;;;;13.84;100.00;100549.66;2615591;36;20042;-55
2022/10/15 06:44:07;;;;;;;99.05;38.35;;;;;;;13.82;100.00;100540.84;2615172;36;20034;-52
2022/10/15 06:46:36;;;;;;;103.57;36.92;;;;;;;13.91;100.00;100545.25;2614597;36;20022;-54
2022/10/15 06:49:04;;;;;;;116.07;39.57;;;;;;;13.85;100.00;100545.91;2615135;36;20026;-52
2022/10/15 06:51:36;;;;;;;111.37;36.33;;;;;;;13.73;100.00;100549.94;2616230;36;20043;-54
2022/10/15 06:54:04;;;;;;;104.75;36.13;;;;;;;13.91;100.00;100556.06;2615272;31;20315;-55
2022/10/15 06:56:33;;;;;;;95.65;34.50;;;;;;;13.94;100.00;100550.34;2615926;31;20042;-54
2022/10/15 06:59:01;;;;;;;95.47;35.30;;;;;;;13.91;100.00;100555.22;2613955;36;20037;-56
2022/10/15 07:01:30;;;;;;;100.90;34.10;;;;;;;13.74;100.00;100562.47;2613988;31;20046;-54
2022/10/15 07:03:58;;;;;;;93.32;32.78;;;;;;;13.78;100.00;100558.41;2613797;36;20064;-54
2022/10/15 07:06:27;;;;;;;100.88;33.90;;;;;;;13.82;100.00;100541.69;2615290;36;20808;-50
2022/10/15 07:08:58;;;;;;;95.80;33.17;;;;;;;13.93;100.00;100543.25;2615025;36;20023;-53
2022/10/15 07:11:26;;;;;;;86.65;30.92;;;;;;;13.92;100.00;100544.25;2615869;36;20023;-52
2022/10/15 07:13:56;;;;;;;92.75;30.67;;;;;;;14.12;100.00;100542.09;2614742;36;20424;-56
2022/10/15 07:16:25;;;;;;;91.63;31.35;;;;;;;13.81;100.00;100550.81;2615245;31;20045;-54
2022/10/15 07:18:53;;;;;;;87.70;29.00;;;;;;;14.02;100.00;100547.66;2614290;36;20356;-54
2022/10/15 07:21:22;;;;;;;93.30;30.98;;;;;;;14.10;100.00;100548.66;2615025;36;20038;-50
2022/10/15 07:23:50;;;;;;;81.45;30.02;;;;;;;14.06;100.00;100559.00;2614903;36;20022;-54
2022/10/15 07:26:24;;;;;;;85.80;30.13;;;;;;;14.07;100.00;100565.25;2615385;36;20758;-55
2022/10/15 07:28:52;;;;;;;94.32;30.83;;;;;;;13.97;100.00;100566.25;2615036;36;20097;-56
2022/10/15 07:31:20;;;;;;;89.93;30.38;;;;;;;13.94;100.00;100565.72;2615544;36;20034;-51
2022/10/15 07:33:48;;;;;;;91.95;28.52;;;;;;;14.00;100.00;100576.75;2615280;36;20038;-52
2022/10/15 07:36:19;;;;;;;95.35;29.70;;;;;;;14.25;100.00;100574.09;2615475;36;20053;-54
2022/10/15 07:38:48;;;;;;;87.80;28.05;;;;;;;13.92;100.00;100579.41;2615634;36;20417;-52
2022/10/15 07:41:16;;;;;;;79.45;27.02;;;;;;;14.44;100.00;100575.63;2615767;36;20022;-54
2022/10/15 07:43:47;;;;;;;79.33;26.27;;;;;;;14.37;100.00;100580.03;2611914;36;20034;-53
2022/10/15 07:46:16;;;;;;;84.50;25.20;;;;;;;14.32;100.00;100568.84;2608265;31;20047;-57
2022/10/15 07:48:44;;;;;;;82.60;26.40;;;;;;;14.24;100.00;100568.84;2612981;36;20065;-56
2022/10/15 07:51:13;;;;;;;86.77;24.63;;;;;;;14.41;100.00;100564.28;2614147;36;20107;-54
2022/10/15 07:53:42;;;;;;;70.35;24.00;;;;;;;14.75;100.00;100574.13;2609695;36;20038;-53
2022/10/15 07:56:13;;;;;;;76.00;23.88;;;;;;;14.67;100.00;100567.69;2609953;36;20038;-56
2022/10/15 07:58:50;;;;;;;69.45;25.33;;;;;;;14.76;100.00;100565.81;2610426;36;20041;-50
2022/10/15 08:01:22;;;;;;;63.90;22.42;;;;;;;14.79;100.00;100554.63;2610261;31;20049;-52
2022/10/15 08:03:51;;;;;;;68.45;23.17;;;;;;;14.61;100.00;100562.94;2612209;36;20042;-55
2022/10/15 08:06:19;;;;;;;76.27;24.30;;;;;;;14.79;100.00;100548.38;2613134;36;20023;-54
2022/10/15 08:08:48;;;;;;;65.55;22.20;;;;;;;14.88;100.00;100547.34;2611798;36;20042;-57
2022/10/15 08:11:18;;;;;;;59.33;21.55;;;;;;;14.98;100.00;100541.75;2613525;36;20023;-55
2022/10/15 08:13:47;;;;;;;61.00;21.25;;;;;;;15.03;100.00;100550.19;2614210;36;20037;-56
2022/10/15 08:16:18;;;;;;;57.63;21.25;;;;;;;15.07;100.00;100538.84;2614335;31;20030;-54
2022/10/15 08:18:49;;;;;;;56.38;21.35;;;;;;;15.27;100.00;100533.03;2615358;36;20058;-57
2022/10/15 08:21:17;;;;;;;56.58;20.75;;;;;;;15.15;100.00;100532.56;2613613;36;20031;-53
2022/10/15 08:23:46;;;;;;;56.50;20.93;;;;;;;15.23;100.00;100535.22;2615331;31;20034;-56
2022/10/15 08:26:14;;;;;;;55.13;21.67;;;;;;;15.19;100.00;100527.63;2615591;36;20049;-55
2022/10/15 08:28:43;;;;;;;56.23;20.67;;;;;;;15.24;100.00;100531.50;2614870;36;20034;-55
2022/10/15 08:31:11;;;;;;;49.13;19.85;;;;;;;15.10;100.00;100534.94;2613399;36;20054;-57
2022/10/15 08:33:39;;;;;;;48.63;19.05;;;;;;;15.28;100.00;100526.56;2615219;36;20054;-57
2022/10/15 08:36:10;;;;;;;46.75;18.35;;;;;;;15.27;100.00;100508.63;2616196;31;20415;-55
2022/10/15 08:38:39;;;;;;;46.50;18.08;;;;;;;15.45;100.00;100496.69;2615430;31;20030;-56
2022/10/15 08:41:20;;;;;;;42.00;17.60;;;;;;;15.11;100.00;100497.84;2614142;36;20081;-57
2022/10/15 08:43:49;;;;;;;43.60;17.02;;;;;;;15.32;100.00;100489.09;2610554;36;20034;-57
2022/10/15 08:46:22;;;;;;;40.25;17.13;;;;;;;15.38;100.00;100504.66;2612695;36;20023;-56
2022/10/15 08:48:52;;;;;;;39.05;16.42;;;;;;;15.41;100.00;100504.31;2614797;36;20570;-57
2022/10/15 08:51:27;;;;;;;37.83;16.17;;;;;;;15.68;100.00;100496.72;2614891;36;20023;-55
2022/10/15 08:53:58;;;;;;;33.70;15.65;;;;;;;15.60;100.00;100505.75;2605594;36;20320;-56
2022/10/15 08:56:31;;;;;;;31.20;15.25;;;;;;;15.77;100.00;100503.78;2614930;31;20042;-57
2022/10/15 08:59:13;;;;;;;30.52;15.70;;;;;;;15.73;100.00;100502.47;2615136;36;20042;-58
2022/10/15 09:01:49;;;;;;;29.83;14.43;;;;;;;15.76;100.00;100513.78;2614329;36;20026;-58
2022/10/15 09:04:28;;;;;;;29.08;13.80;;;;;;;16.10;100.00;100509.84;2615027;36;20413;-57
2022/10/15 09:07:08;;;;;;;29.98;14.50;;;;;;;16.15;100.00;100506.63;2615551;36;20085;-57
2022/10/15 09:09:46;;;;;;;26.63;14.65;;;;;;;16.38;100.00;100511.19;2614165;36;20050;-58
2022/10/15 09:12:32;;;;;;;26.65;14.40;;;;;;;16.27;100.00;100515.19;2613691;36;20061;-57
2022/10/15 09:15:01;;;;;;;24.27;13.73;;;;;;;16.33;100.00;100502.72;2614526;36;20046;-57
2022/10/15 09:17:35;;;;;;;22.20;13.32;;;;;;;16.28;100.00;100489.69;2615804;36;20041;-56
2022/10/15 09:20:07;;;;;;;27.63;12.85;;;;;;;16.48;100.00;100484.63;2614982;36;20041;-57
2022/10/15 09:22:37;;;;;;;22.98;12.30;;;;;;;16.54;100.00;100489.31;2615572;31;20030;-58
2022/10/15 09:25:16;;;;;;;22.45;12.50;;;;;;;16.35;100.00;100474.38;2613767;36;20614;-56
2022/10/15 09:27:47;;;;;;;27.88;13.63;;;;;;;16.25;100.00;100468.34;2614776;31;20554;-57
2022/10/15 09:30:27;;;;;;;19.38;10.98;;;;;;;16.40;100.00;100469.25;2613820;36;20038;-55
2022/10/15 09:33:03;;;;;;;21.92;12.15;;;;;;;16.48;100.00;100472.91;2615719;36;20022;-56
2022/10/15 09:35:36;;;;;;;18.27;11.35;;;;;;;16.44;100.00;100478.72;2615765;31;20023;-56
2022/10/15 09:38:25;;;;;;;19.90;11.30;;;;;;;16.64;100.00;100483.63;2615314;36;20041;-58
2022/10/15 09:41:05;;;;;;;18.88;10.60;;;;;;;16.38;100.00;100484.84;2616122;36;20034;-59
2022/10/15 09:43:39;;;;;;;17.65;10.55;;;;;;;16.46;100.00;100476.66;2615133;31;20026;-57
2022/10/15 09:46:08;;;;;;;18.15;11.18;;;;;;;16.41;100.00;100480.94;2615087;36;20035;-58
2022/10/15 09:48:41;;;;;;;18.43;10.77;;;;;;;16.38;100.00;100467.72;2616535;31;20049;-53
2022/10/15 09:51:24;;;;;;;20.17;11.50;;;;;;;16.50;100.00;100477.09;2614615;36;20030;-59
2022/10/15 09:54:04;;;;;;;19.65;10.95;;;;;;;16.92;100.00;100469.44;2614842;31;20034;-58
2022/10/15 09:56:38;;;;;;;19.05;10.27;;;;;;;16.77;100.00;100469.38;2614606;36;20026;-59
2022/10/15 09:59:16;;;;;;;18.70;11.18;;;;;;;16.98;100.00;100465.94;2614943;36;20031;-58
2022/10/15 10:01:58;;;;;;;19.25;11.65;;;;;;;16.90;100.00;100458.75;2614548;36;20038;-59
2022/10/15 10:04:30;;;;;;;18.17;11.38;;;;;;;16.64;100.00;100464.59;2613205;36;20132;-58
2022/10/15 10:07:00;;;;;;;18.38;11.80;;;;;;;16.58;100.00;100458.03;2616481;31;20591;-59
2022/10/15 10:09:34;;;;;;;23.25;11.73;;;;;;;16.85;100.00;100460.28;2615706;36;20026;-58
2022/10/15 10:12:05;;;;;;;20.38;11.85;;;;;;;16.94;100.00;100442.88;2614677;36;20045;-60
2022/10/15 10:14:37;;;;;;;22.23;12.30;;;;;;;16.79;100.00;100448.28;2615733;36;20030;-59
2022/10/15 10:17:16;;;;;;;20.42;12.52;;;;;;;16.92;100.00;100434.91;2616480;36;20430;-59
2022/10/15 10:19:46;;;;;;;21.60;11.98;;;;;;;16.93;100.00;100430.31;2615934;36;20043;-59
2022/10/15 10:22:18;;;;;;;19.65;11.85;;;;;;;17.09;100.00;100421.13;2614890;36;20022;-59
2022/10/15 10:24:49;;;;;;;22.15;12.40;;;;;;;16.98;100.00;100420.56;2615207;36;20030;-61
2022/10/15 10:27:24;;;;;;;24.05;12.02;;;;;;;16.99;100.00;100414.09;2614945;36;20042;-59
2022/10/15 10:29:58;;;;;;;22.98;12.48;;;;;;;16.75;100.00;100431.50;2614986;36;20026;-55
2022/10/15 10:32:31;;;;;;;20.13;12.23;;;;;;;16.88;100.00;100435.50;2615320;31;20034;-57
2022/10/15 10:35:01;;;;;;;20.92;12.05;;;;;;;17.20;100.00;100423.34;2615750;36;20061;-49
2022/10/15 10:37:31;;;;;;;25.77;12.38;;;;;;;17.35;100.00;100420.59;2615554;36;20069;-56
2022/10/15 10:40:02;;;;;;;21.48;12.35;;;;;;;17.30;100.00;100423.06;2616050;36;20551;-51
2022/10/15 10:42:37;;;;;;;25.02;13.00;;;;;;;17.33;100.00;100428.13;2616124;31;20439;-56
2022/10/15 10:45:25;;;;;;;21.92;12.30;;;;;;;17.26;100.00;100421.75;2614995;36;20030;-53
2022/10/15 10:47:54;;;;;;;22.50;12.38;;;;;;;17.45;100.00;100423.84;2611948;36;20027;-53
2022/10/15 10:50:36;;;;;;;21.90;12.60;;;;;;;17.49;100.00;100411.56;2615275;36;20038;-51
2022/10/15 10:53:21;;;;;;;21.73;11.93;;;;;;;17.49;100.00;100410.69;2607562;36;20308;-54
2022/10/15 10:55:54;;;;;;;21.48;11.10;;;;;;;17.73;100.00;100408.66;2615553;36;20038;-50
2022/10/15 10:58:24;;;;;;;22.65;12.55;;;;;;;17.45;100.00;100426.56;2615094;36;20034;-51
2022/10/15 11:00:54;;;;;;;21.63;11.52;;;;;;;17.39;100.00;100411.03;2615120;36;20026;-53
2022/10/15 11:03:31;;;;;;;21.58;11.82;;;;;;;17.52;100.00;100410.34;2614833;31;20540;-49
2022/10/15 11:06:11;;;;;;;20.77;11.60;;;;;;;17.53;100.00;100406.56;2615109;36;20045;-52
2022/10/15 11:08:47;;;;;;;20.30;11.77;;;;;;;17.36;100.00;100414.13;2613529;36;20904;-52
2022/10/15 11:11:24;;;;;;;21.83;12.27;;;;;;;17.50;100.00;100402.38;2615524;36;20043;-54
2022/10/15 11:14:06;;;;;;;21.90;11.15;;;;;;;17.26;100.00;100402.72;2615453;36;20034;-51
2022/10/15 11:16:43;;;;;;;20.10;11.75;;;;;;;17.27;100.00;100412.53;2615877;31;20029;-56
2022/10/15 11:19:23;;;;;;;16.40;9.93;;;;;;;17.06;100.00;100410.63;2615416;31;20030;-51
2022/10/15 11:22:05;;;;;;;18.65;10.35;;;;;;;17.16;100.00;100406.56;2612945;36;20449;-53